sensor_id;sensor_type;location;lat;lon;timestamp;pressure;altitude;pressure_sealevel;temperature;humidity
60355;BME280;46198;51.464;-0.066;2024-02-26T00:00:12;99507.63;;;5.80;100.00
60355;BME280;46198;51.464;-0.066;2024-02-26T00:02:43;99507.63;;;5.80;100.00
60355;BME280;46198;51.464;-0.066;2024-02-26T00:05:14;99520.66;;;5.83;100.00
60355;BME280;46198;51.464;-0.066;2024-02-26T00:07:42;99520.44;;;5.84;100.00
60355;BME280;46198;51.464;-0.066;2024-02-26T00:10:13;99531.44;;;5.83;100.00
60355;BME280;46198;51.464;-0.066;2024-02-26T00:12:45;99520.22;;;5.86;100.00
60355;BME280;46198;51.464;-0.066;2024-02-26T00:15:13;99528.53;;;5.84;100.00
60355;BME280;46198;51.464;-0.066;2024-02-26T00:17:44;99529.97;;;5.87;100.00
60355;BME280;46198;51.464;-0.066;2024-02-26T00:20:12;99536.59;;;5.84;100.00
60355;BME280;46198;51.464;-0.066;2024-02-26T00:22:41;99542.00;;;5.84;100.00
60355;BME280;46198;51.464;-0.066;2024-02-26T00:25:09;99553.16;;;5.88;100.00
60355;BME280;46198;51.464;-0.066;2024-02-26T00:27:39;99539.50;;;5.83;100.00
60355;BME280;46198;51.464;-0.066;2024-02-26T00:30:09;99552.31;;;5.87;100.00
60355;BME280;46198;51.464;-0.066;2024-02-26T00:32:39;99552.53;;;5.86;100.00
60355;BME280;46198;51.464;-0.066;2024-02-26T00:35:11;99559.34;;;5.88;100.00
60355;BME280;46198;51.464;-0.066;2024-02-26T00:37:42;99552.31;;;5.87;100.00
60355;BME280;46198;51.464;-0.066;2024-02-26T00:40:11;99577.00;;;5.84;100.00
60355;BME280;46198;51.464;-0.066;2024-02-26T00:42:40;99559.34;;;5.88;100.00
60355;BME280;46198;51.464;-0.066;2024-02-26T00:45:12;99569.75;;;5.85;100.00
60355;BME280;46198;51.464;-0.066;2024-02-26T00:47:40;99575.75;;;5.87;100.00
60355;BME280;46198;51.464;-0.066;2024-02-26T00:50:10;99572.00;;;5.88;100.00
60355;BME280;46198;51.464;-0.066;2024-02-26T00:52:39;99574.09;;;5.86;100.00
60355;BME280;46198;51.464;-0.066;2024-02-26T00:55:09;99583.59;;;5.88;100.00
60355;BME280;46198;51.464;-0.066;2024-02-26T00:57:38;99585.47;;;5.88;100.00
60355;BME280;46198;51.464;-0.066;2024-02-26T01:00:10;99590.25;;;5.86;100.00
60355;BME280;46198;51.464;-0.066;2024-02-26T01:02:46;99601.25;;;5.84;100.00
60355;BME280;46198;51.464;-0.066;2024-02-26T01:05:15;99600.19;;;5.85;100.00
60355;BME280;46198;51.464;-0.066;2024-02-26T01:07:44;99598.50;;;5.91;100.00
60355;BME280;46198;51.464;-0.066;2024-02-26T01:10:13;99601.63;;;5.88;100.00
60355;BME280;46198;51.464;-0.066;2024-02-26T01:12:41;99604.09;;;5.96;100.00
60355;BME280;46198;51.464;-0.066;2024-02-26T01:15:09;99611.75;;;5.92;100.00
60355;BME280;46198;51.464;-0.066;2024-02-26T01:17:39;99625.22;;;5.92;100.00
60355;BME280;46198;51.464;-0.066;2024-02-26T01:20:09;99622.91;;;6.03;100.00
60355;BME280;46198;51.464;-0.066;2024-02-26T01:22:39;99625.44;;;5.91;100.00
60355;BME280;46198;51.464;-0.066;2024-02-26T01:25:08;99625.22;;;5.92;100.00
60355;BME280;46198;51.464;-0.066;2024-02-26T01:27:38;99637.22;;;5.96;100.00
60355;BME280;46198;51.464;-0.066;2024-02-26T01:30:09;99653.19;;;5.91;100.00
60355;BME280;46198;51.464;-0.066;2024-02-26T01:32:39;99640.75;;;5.97;100.00
60355;BME280;46198;51.464;-0.066;2024-02-26T01:35:08;99653.63;;;5.95;100.00
60355;BME280;46198;51.464;-0.066;2024-02-26T01:37:40;99649.28;;;5.94;100.00
60355;BME280;46198;51.464;-0.066;2024-02-26T01:40:14;99663.34;;;5.96;100.00
60355;BME280;46198;51.464;-0.066;2024-02-26T01:42:45;99667.09;;;5.95;100.00
60355;BME280;46198;51.464;-0.066;2024-02-26T01:45:15;99664.41;;;5.95;100.00
60355;BME280;46198;51.464;-0.066;2024-02-26T01:47:50;99672.06;;;5.98;100.00
60355;BME280;46198;51.464;-0.066;2024-02-26T01:50:19;99692.72;;;6.04;100.00
60355;BME280;46198;51.464;-0.066;2024-02-26T01:52:51;99677.44;;;5.98;100.00
60355;BME280;46198;51.464;-0.066;2024-02-26T01:55:20;99687.78;;;6.01;100.00
60355;BME280;46198;51.464;-0.066;2024-02-26T01:58:15;99690.91;;;5.98;100.00
60355;BME280;46198;51.464;-0.066;2024-02-26T02:05:34;99699.44;;;5.95;100.00
60355;BME280;46198;51.464;-0.066;2024-02-26T02:08:11;99710.41;;;6.00;100.00
60355;BME280;46198;51.464;-0.066;2024-02-26T02:10:41;99711.84;;;6.03;100.00
60355;BME280;46198;51.464;-0.066;2024-02-26T02:13:10;99721.31;;;6.05;100.00
60355;BME280;46198;51.464;-0.066;2024-02-26T02:15:38;99713.69;;;6.02;100.00
60355;BME280;46198;51.464;-0.066;2024-02-26T02:18:07;99737.34;;;6.00;100.00
60355;BME280;46198;51.464;-0.066;2024-02-26T02:20:37;99731.50;;;6.03;100.00
60355;BME280;46198;51.464;-0.066;2024-02-26T02:23:05;99736.50;;;5.99;100.00
60355;BME280;46198;51.464;-0.066;2024-02-26T02:25:33;99746.63;;;6.04;100.00
60355;BME280;46198;51.464;-0.066;2024-02-26T02:28:01;99743.75;;;5.99;100.00
60355;BME280;46198;51.464;-0.066;2024-02-26T02:30:30;99746.25;;;6.01;100.00
60355;BME280;46198;51.464;-0.066;2024-02-26T02:33:00;99751.41;;;6.02;100.00
60355;BME280;46198;51.464;-0.066;2024-02-26T02:35:29;99758.28;;;5.98;100.00
60355;BME280;46198;51.464;-0.066;2024-02-26T02:37:58;99763.22;;;6.01;100.00
60355;BME280;46198;51.464;-0.066;2024-02-26T02:40:26;99761.59;;;6.00;100.00
60355;BME280;46198;51.464;-0.066;2024-02-26T02:42:55;99771.75;;;5.98;100.00
60355;BME280;46198;51.464;-0.066;2024-02-26T02:45:23;99782.72;;;6.03;100.00
60355;BME280;46198;51.464;-0.066;2024-02-26T02:47:51;99783.16;;;6.00;100.00
60355;BME280;46198;51.464;-0.066;2024-02-26T02:50:20;99788.53;;;6.00;100.00
60355;BME280;46198;51.464;-0.066;2024-02-26T02:52:48;99790.00;;;5.96;100.00
60355;BME280;46198;51.464;-0.066;2024-02-26T02:55:18;99789.53;;;6.06;100.00
60355;BME280;46198;51.464;-0.066;2024-02-26T02:57:46;99801.78;;;6.02;100.00
60355;BME280;46198;51.464;-0.066;2024-02-26T03:00:15;99804.28;;;6.03;100.00
60355;BME280;46198;51.464;-0.066;2024-02-26T03:02:43;99809.69;;;5.96;100.00
60355;BME280;46198;51.464;-0.066;2024-02-26T03:05:12;99811.34;;;5.97;100.00
60355;BME280;46198;51.464;-0.066;2024-02-26T03:07:40;99814.66;;;5.93;100.00
60355;BME280;46198;51.464;-0.066;2024-02-26T03:10:11;99816.31;;;5.94;100.00
60355;BME280;46198;51.464;-0.066;2024-02-26T03:12:44;99814.25;;;5.89;100.00
60355;BME280;46198;51.464;-0.066;2024-02-26T03:15:12;99820.88;;;5.93;100.00
60355;BME280;46198;51.464;-0.066;2024-02-26T03:17:43;99818.78;;;5.89;100.00
60355;BME280;46198;51.464;-0.066;2024-02-26T03:20:12;99838.28;;;5.91;100.00
60355;BME280;46198;51.464;-0.066;2024-02-26T03:22:40;99838.28;;;5.91;100.00
60355;BME280;46198;51.464;-0.066;2024-02-26T03:25:08;99839.31;;;5.90;100.00
60355;BME280;46198;51.464;-0.066;2024-02-26T03:27:37;99848.66;;;5.87;100.00
60355;BME280;46198;51.464;-0.066;2024-02-26T03:30:10;99864.00;;;5.80;100.00
60355;BME280;46198;51.464;-0.066;2024-02-26T03:32:41;99859.88;;;5.84;100.00
60355;BME280;46198;51.464;-0.066;2024-02-26T03:35:10;99870.22;;;5.94;100.00
60355;BME280;46198;51.464;-0.066;2024-02-26T03:37:38;99876.63;;;5.86;100.00
60355;BME280;46198;51.464;-0.066;2024-02-26T03:40:07;99886.38;;;5.87;100.00
60355;BME280;46198;51.464;-0.066;2024-02-26T03:42:36;99885.13;;;5.83;100.00
60355;BME280;46198;51.464;-0.066;2024-02-26T03:45:05;99903.78;;;5.85;100.00
60355;BME280;46198;51.464;-0.066;2024-02-26T03:47:35;99905.47;;;5.79;100.00
60355;BME280;46198;51.464;-0.066;2024-02-26T03:50:04;99901.09;;;5.85;100.00
60355;BME280;46198;51.464;-0.066;2024-02-26T03:52:33;99905.88;;;5.83;100.00
60355;BME280;46198;51.464;-0.066;2024-02-26T03:55:01;99911.66;;;5.86;100.00
60355;BME280;46198;51.464;-0.066;2024-02-26T03:57:54;99919.97;;;5.78;100.00
60355;BME280;46198;51.464;-0.066;2024-02-26T04:00:22;99931.16;;;5.75;100.00
60355;BME280;46198;51.464;-0.066;2024-02-26T04:03:19;99929.31;;;5.75;100.00
60355;BME280;46198;51.464;-0.066;2024-02-26T04:05:47;99940.47;;;5.72;100.00
60355;BME280;46198;51.464;-0.066;2024-02-26T04:08:15;99942.16;;;5.73;100.00
60355;BME280;46198;51.464;-0.066;2024-02-26T04:10:43;99940.91;;;5.69;100.00
60355;BME280;46198;51.464;-0.066;2024-02-26T04:13:12;99947.53;;;5.73;100.00
60355;BME280;46198;51.464;-0.066;2024-02-26T04:15:40;99956.88;;;5.71;100.00
60355;BME280;46198;51.464;-0.066;2024-02-26T04:18:09;99955.41;;;5.68;100.00
60355;BME280;46198;51.464;-0.066;2024-02-26T04:20:38;99973.66;;;5.66;100.00
60355;BME280;46198;51.464;-0.066;2024-02-26T04:23:09;99973.22;;;5.69;100.00
60355;BME280;46198;51.464;-0.066;2024-02-26T04:25:37;99978.81;;;5.74;100.00
60355;BME280;46198;51.464;-0.066;2024-02-26T04:28:05;99987.53;;;5.76;100.00
60355;BME280;46198;51.464;-0.066;2024-02-26T04:31:00;99992.94;;;5.63;100.00
60355;BME280;46198;51.464;-0.066;2024-02-26T04:33:28;99997.88;;;5.66;100.00
60355;BME280;46198;51.464;-0.066;2024-02-26T04:35:58;100002.47;;;5.59;100.00
60355;BME280;46198;51.464;-0.066;2024-02-26T04:38:26;100009.69;;;5.59;100.00
60355;BME280;46198;51.464;-0.066;2024-02-26T04:40:54;100011.78;;;5.63;100.00
60355;BME280;46198;51.464;-0.066;2024-02-26T04:43:22;100025.25;;;5.63;100.00
60355;BME280;46198;51.464;-0.066;2024-02-26T04:45:51;100020.25;;;5.67;100.00
60355;BME280;46198;51.464;-0.066;2024-02-26T04:48:19;100032.09;;;5.59;100.00
60355;BME280;46198;51.464;-0.066;2024-02-26T04:50:47;100031.25;;;5.65;100.00
60355;BME280;46198;51.464;-0.066;2024-02-26T04:53:17;100046.56;;;5.58;100.00
60355;BME280;46198;51.464;-0.066;2024-02-26T04:55:45;100055.91;;;5.62;100.00
60355;BME280;46198;51.464;-0.066;2024-02-26T04:58:14;100047.81;;;5.55;100.00
60355;BME280;46198;51.464;-0.066;2024-02-26T05:00:42;100048.44;;;5.58;100.00
60355;BME280;46198;51.464;-0.066;2024-02-26T05:03:10;100072.50;;;5.59;100.00
60355;BME280;46198;51.464;-0.066;2024-02-26T05:05:40;100060.84;;;5.59;100.00
60355;BME280;46198;51.464;-0.066;2024-02-26T05:08:08;100077.03;;;5.59;100.00
60355;BME280;46198;51.464;-0.066;2024-02-26T05:10:38;100087.78;;;5.52;100.00
60355;BME280;46198;51.464;-0.066;2024-02-26T05:13:07;100099.41;;;5.59;100.00
60355;BME280;46198;51.464;-0.066;2024-02-26T05:15:36;100107.91;;;5.63;100.00
60355;BME280;46198;51.464;-0.066;2024-02-26T05:18:05;100096.91;;;5.58;100.00
60355;BME280;46198;51.464;-0.066;2024-02-26T05:20:35;100096.72;;;5.59;100.00
60355;BME280;46198;51.464;-0.066;2024-02-26T05:23:05;100105.59;;;5.53;100.00
60355;BME280;46198;51.464;-0.066;2024-02-26T05:25:33;100122.81;;;5.52;100.00
60355;BME280;46198;51.464;-0.066;2024-02-26T05:28:03;100135.44;;;5.58;100.00
60355;BME280;46198;51.464;-0.066;2024-02-26T05:30:34;100138.75;;;5.53;100.00
60355;BME280;46198;51.464;-0.066;2024-02-26T05:33:02;100136.69;;;5.49;100.00
60355;BME280;46198;51.464;-0.066;2024-02-26T05:35:30;100150.38;;;5.54;100.00
60355;BME280;46198;51.464;-0.066;2024-02-26T05:37:58;100153.25;;;5.52;100.00
60355;BME280;46198;51.464;-0.066;2024-02-26T05:40:27;100155.31;;;5.44;100.00
60355;BME280;46198;51.464;-0.066;2024-02-26T05:42:55;100163.81;;;5.54;100.00
60355;BME280;46198;51.464;-0.066;2024-02-26T05:45:25;100173.13;;;5.51;100.00
60355;BME280;46198;51.464;-0.066;2024-02-26T05:47:53;100192.59;;;5.47;100.00
60355;BME280;46198;51.464;-0.066;2024-02-26T05:50:21;100181.81;;;5.47;100.00
60355;BME280;46198;51.464;-0.066;2024-02-26T05:52:49;100202.53;;;5.46;100.00
60355;BME280;46198;51.464;-0.066;2024-02-26T05:55:17;100195.91;;;5.49;100.00
60355;BME280;46198;51.464;-0.066;2024-02-26T05:57:46;100216.63;;;5.48;100.00
60355;BME280;46198;51.464;-0.066;2024-02-26T06:00:14;100206.25;;;5.45;100.00
60355;BME280;46198;51.464;-0.066;2024-02-26T06:02:44;100227.59;;;5.47;100.00
60355;BME280;46198;51.464;-0.066;2024-02-26T06:10:05;100240.41;;;5.45;100.00
60355;BME280;46198;51.464;-0.066;2024-02-26T06:12:35;100243.75;;;5.53;100.00
60355;BME280;46198;51.464;-0.066;2024-02-26T06:15:04;100256.38;;;5.46;100.00
60355;BME280;46198;51.464;-0.066;2024-02-26T06:17:32;100268.16;;;5.39;100.00
60355;BME280;46198;51.464;-0.066;2024-02-26T06:20:02;100266.69;;;5.43;100.00
60355;BME280;46198;51.464;-0.066;2024-02-26T06:22:31;100266.88;;;5.34;100.00
60355;BME280;46198;51.464;-0.066;2024-02-26T06:24:59;100279.56;;;5.41;100.00
60355;BME280;46198;51.464;-0.066;2024-02-26T06:27:28;100283.47;;;5.38;100.00
60355;BME280;46198;51.464;-0.066;2024-02-26T06:29:56;100289.03;;;5.37;100.00
60355;BME280;46198;51.464;-0.066;2024-02-26T06:32:24;100292.53;;;5.30;100.00
60355;BME280;46198;51.464;-0.066;2024-02-26T06:34:54;100312.19;;;5.24;100.00
60355;BME280;46198;51.464;-0.066;2024-02-26T06:37:24;100300.22;;;5.33;100.00
60355;BME280;46198;51.464;-0.066;2024-02-26T06:39:52;100311.38;;;5.30;100.00
60355;BME280;46198;51.464;-0.066;2024-02-26T06:42:20;100324.19;;;5.28;100.00
60355;BME280;46198;51.464;-0.066;2024-02-26T06:44:49;100327.53;;;5.30;100.00
60355;BME280;46198;51.464;-0.066;2024-02-26T06:47:17;100330.03;;;5.32;100.00
60355;BME280;46198;51.464;-0.066;2024-02-26T06:49:46;100345.50;;;5.23;100.00
60355;BME280;46198;51.464;-0.066;2024-02-26T06:52:19;100346.94;;;5.19;100.00
60355;BME280;46198;51.464;-0.066;2024-02-26T06:54:49;100360.66;;;5.31;100.00
60355;BME280;46198;51.464;-0.066;2024-02-26T06:57:17;100357.53;;;5.27;100.00
60355;BME280;46198;51.464;-0.066;2024-02-26T06:59:46;100368.22;;;5.14;100.00
60355;BME280;46198;51.464;-0.066;2024-02-26T07:02:15;100373.84;;;5.19;100.00
60355;BME280;46198;51.464;-0.066;2024-02-26T07:04:46;100380.59;;;5.08;100.00
60355;BME280;46198;51.464;-0.066;2024-02-26T07:07:14;100381.25;;;5.10;100.00
60355;BME280;46198;51.464;-0.066;2024-02-26T07:09:45;100402.75;;;5.10;100.00
60355;BME280;46198;51.464;-0.066;2024-02-26T07:12:14;100408.16;;;5.10;100.00
60355;BME280;46198;51.464;-0.066;2024-02-26T07:14:43;100400.25;;;5.09;100.00
60355;BME280;46198;51.464;-0.066;2024-02-26T07:17:12;100398.78;;;5.06;100.00
60355;BME280;46198;51.464;-0.066;2024-02-26T07:19:42;100400.00;;;5.04;100.00
60355;BME280;46198;51.464;-0.066;2024-02-26T07:22:10;100419.09;;;5.09;100.00
60355;BME280;46198;51.464;-0.066;2024-02-26T07:24:39;100417.44;;;5.08;100.00
60355;BME280;46198;51.464;-0.066;2024-02-26T07:27:07;100424.47;;;5.09;100.00
60355;BME280;46198;51.464;-0.066;2024-02-26T07:29:37;100452.81;;;5.05;100.00
60355;BME280;46198;51.464;-0.066;2024-02-26T07:32:06;100435.69;;;5.13;100.00
60355;BME280;46198;51.464;-0.066;2024-02-26T07:34:34;100445.88;;;5.17;100.00
60355;BME280;46198;51.464;-0.066;2024-02-26T07:37:02;100473.09;;;5.07;100.00
60355;BME280;46198;51.464;-0.066;2024-02-26T07:39:31;100446.66;;;5.11;100.00
60355;BME280;46198;51.464;-0.066;2024-02-26T07:41:59;100461.13;;;5.10;100.00
60355;BME280;46198;51.464;-0.066;2024-02-26T07:44:27;100472.91;;;5.09;100.00
60355;BME280;46198;51.464;-0.066;2024-02-26T07:46:57;100461.44;;;5.22;100.00
60355;BME280;46198;51.464;-0.066;2024-02-26T07:49:25;100467.59;;;5.16;100.00
60355;BME280;46198;51.464;-0.066;2024-02-26T07:51:54;100483.94;;;5.14;100.00
60355;BME280;46198;51.464;-0.066;2024-02-26T07:54:25;100484.78;;;5.15;100.00
60355;BME280;46198;51.464;-0.066;2024-02-26T07:56:53;100486.81;;;5.13;100.00
60355;BME280;46198;51.464;-0.066;2024-02-26T07:59:21;100493.06;;;5.13;100.00
60355;BME280;46198;51.464;-0.066;2024-02-26T08:01:50;100509.81;;;5.15;100.00
60355;BME280;46198;51.464;-0.066;2024-02-26T08:04:25;100511.25;;;5.11;100.00
60355;BME280;46198;51.464;-0.066;2024-02-26T08:06:54;100511.13;;;5.19;100.00
60355;BME280;46198;51.464;-0.066;2024-02-26T08:09:22;100520.44;;;5.23;100.00
60355;BME280;46198;51.464;-0.066;2024-02-26T08:11:50;100515.72;;;5.25;100.00
60355;BME280;46198;51.464;-0.066;2024-02-26T08:14:19;100525.72;;;5.31;100.00
60355;BME280;46198;51.464;-0.066;2024-02-26T08:16:47;100527.13;;;5.27;100.00
60355;BME280;46198;51.464;-0.066;2024-02-26T08:19:16;100538.78;;;5.34;100.00
60355;BME280;46198;51.464;-0.066;2024-02-26T08:21:46;100549.63;;;5.41;100.00
60355;BME280;46198;51.464;-0.066;2024-02-26T08:24:14;100554.81;;;5.43;100.00
60355;BME280;46198;51.464;-0.066;2024-02-26T08:26:42;100547.13;;;5.40;100.00
60355;BME280;46198;51.464;-0.066;2024-02-26T08:29:11;100561.63;;;5.39;100.00
60355;BME280;46198;51.464;-0.066;2024-02-26T08:31:39;100563.78;;;5.50;100.00
60355;BME280;46198;51.464;-0.066;2024-02-26T08:34:07;100568.72;;;5.46;100.00
60355;BME280;46198;51.464;-0.066;2024-02-26T08:36:36;100570.81;;;5.51;100.00
60355;BME280;46198;51.464;-0.066;2024-02-26T08:39:06;100576.69;;;5.54;100.00
60355;BME280;46198;51.464;-0.066;2024-02-26T08:41:35;100581.25;;;5.54;100.00
60355;BME280;46198;51.464;-0.066;2024-02-26T08:44:05;100585.41;;;5.57;100.00
60355;BME280;46198;51.464;-0.066;2024-02-26T08:46:33;100598.66;;;5.58;100.00
60355;BME280;46198;51.464;-0.066;2024-02-26T08:49:01;100605.13;;;5.64;100.00
60355;BME280;46198;51.464;-0.066;2024-02-26T08:51:30;100601.63;;;5.63;100.00
60355;BME280;46198;51.464;-0.066;2024-02-26T08:53:58;100608.78;;;5.77;100.00
60355;BME280;46198;51.464;-0.066;2024-02-26T08:56:28;100609.16;;;5.74;100.00
60355;BME280;46198;51.464;-0.066;2024-02-26T08:58:56;100612.13;;;5.80;100.00
60355;BME280;46198;51.464;-0.066;2024-02-26T09:01:31;100615.72;;;5.87;100.00
60355;BME280;46198;51.464;-0.066;2024-02-26T09:03:59;100616.13;;;5.84;100.00
60355;BME280;46198;51.464;-0.066;2024-02-26T09:06:28;100611.53;;;5.84;100.00
60355;BME280;46198;51.464;-0.066;2024-02-26T09:08:57;100622.38;;;5.91;100.00
60355;BME280;46198;51.464;-0.066;2024-02-26T09:15:55;100640.47;;;5.97;100.00
60355;BME280;46198;51.464;-0.066;2024-02-26T09:18:23;100636.78;;;5.98;100.00
60355;BME280;46198;51.464;-0.066;2024-02-26T09:20:52;100643.44;;;6.02;100.00
60355;BME280;46198;51.464;-0.066;2024-02-26T09:23:23;100650.13;;;6.06;100.00
60355;BME280;46198;51.464;-0.066;2024-02-26T09:25:51;100652.66;;;6.14;100.00
60355;BME280;46198;51.464;-0.066;2024-02-26T09:28:20;100667.22;;;6.20;100.00
60355;BME280;46198;51.464;-0.066;2024-02-26T09:30:51;100673.88;;;6.24;100.00
60355;BME280;46198;51.464;-0.066;2024-02-26T09:33:22;100683.44;;;6.27;100.00
60355;BME280;46198;51.464;-0.066;2024-02-26T09:35:51;100681.78;;;6.26;100.00
60355;BME280;46198;51.464;-0.066;2024-02-26T09:38:19;100693.72;;;6.38;100.00
60355;BME280;46198;51.464;-0.066;2024-02-26T09:40:51;100697.69;;;6.42;100.00
60355;BME280;46198;51.464;-0.066;2024-02-26T09:43:22;100697.03;;;6.40;100.00
60355;BME280;46198;51.464;-0.066;2024-02-26T09:45:53;100704.38;;;6.46;100.00
60355;BME280;46198;51.464;-0.066;2024-02-26T09:48:23;100699.84;;;6.53;100.00
60355;BME280;46198;51.464;-0.066;2024-02-26T09:50:52;100708.16;;;6.58;100.00
60355;BME280;46198;51.464;-0.066;2024-02-26T09:53:21;100715.44;;;6.58;100.00
60355;BME280;46198;51.464;-0.066;2024-02-26T09:55:52;100706.66;;;6.84;100.00
60355;BME280;46198;51.464;-0.066;2024-02-26T09:58:21;100710.47;;;6.96;100.00
60355;BME280;46198;51.464;-0.066;2024-02-26T10:00:52;100729.38;;;6.96;100.00
60355;BME280;46198;51.464;-0.066;2024-02-26T10:03:27;100731.75;;;7.06;100.00
60355;BME280;46198;51.464;-0.066;2024-02-26T10:05:57;100730.03;;;6.98;100.00
60355;BME280;46198;51.464;-0.066;2024-02-26T10:08:26;100747.06;;;7.05;100.00
60355;BME280;46198;51.464;-0.066;2024-02-26T10:10:55;100749.66;;;7.20;100.00
60355;BME280;46198;51.464;-0.066;2024-02-26T10:13:24;100747.56;;;7.16;100.00
60355;BME280;46198;51.464;-0.066;2024-02-26T10:15:52;100760.41;;;7.14;100.00
60355;BME280;46198;51.464;-0.066;2024-02-26T10:18:22;100769.13;;;7.09;100.00
60355;BME280;46198;51.464;-0.066;2024-02-26T10:21:02;100765.19;;;7.12;100.00
60355;BME280;46198;51.464;-0.066;2024-02-26T10:23:31;100778.66;;;7.05;100.00
60355;BME280;46198;51.464;-0.066;2024-02-26T10:25:59;100789.81;;;6.95;100.00
60355;BME280;46198;51.464;-0.066;2024-02-26T10:28:29;100789.41;;;6.98;100.00
60355;BME280;46198;51.464;-0.066;2024-02-26T10:30:58;100800.59;;;6.95;100.00
60355;BME280;46198;51.464;-0.066;2024-02-26T10:33:26;100803.56;;;7.00;100.00
60355;BME280;46198;51.464;-0.066;2024-02-26T10:35:56;100806.41;;;6.92;100.00
60355;BME280;46198;51.464;-0.066;2024-02-26T10:38:26;100814.34;;;7.00;100.00
60355;BME280;46198;51.464;-0.066;2024-02-26T10:40:54;100816.00;;;7.01;100.00
60355;BME280;46198;51.464;-0.066;2024-02-26T10:43:22;100822.63;;;6.99;100.00
60355;BME280;46198;51.464;-0.066;2024-02-26T10:45:51;100818.72;;;7.01;100.00
60355;BME280;46198;51.464;-0.066;2024-02-26T10:48:22;100814.28;;;6.94;100.00
60355;BME280;46198;51.464;-0.066;2024-02-26T10:50:51;100825.06;;;6.87;100.00
60355;BME280;46198;51.464;-0.066;2024-02-26T10:53:21;100840.44;;;6.93;100.00
60355;BME280;46198;51.464;-0.066;2024-02-26T10:55:57;100838.00;;;6.98;100.00
60355;BME280;46198;51.464;-0.066;2024-02-26T10:58:26;100844.22;;;6.99;100.00
60355;BME280;46198;51.464;-0.066;2024-02-26T11:00:56;100841.41;;;7.14;100.00
60355;BME280;46198;51.464;-0.066;2024-02-26T11:03:25;100867.69;;;7.26;100.00
60355;BME280;46198;51.464;-0.066;2024-02-26T11:05:55;100862.53;;;7.31;100.00
60355;BME280;46198;51.464;-0.066;2024-02-26T11:08:26;100872.78;;;7.43;100.00
60355;BME280;46198;51.464;-0.066;2024-02-26T11:10:56;100890.06;;;7.48;100.00
60355;BME280;46198;51.464;-0.066;2024-02-26T11:13:27;100884.50;;;7.57;100.00
60355;BME280;46198;51.464;-0.066;2024-02-26T11:15:58;100873.69;;;7.57;100.00
60355;BME280;46198;51.464;-0.066;2024-02-26T11:18:28;100886.63;;;7.61;100.00
60355;BME280;46198;51.464;-0.066;2024-02-26T11:20:59;100889.13;;;7.63;100.00
60355;BME280;46198;51.464;-0.066;2024-02-26T11:23:28;100881.25;;;7.68;100.00
60355;BME280;46198;51.464;-0.066;2024-02-26T11:25:58;100904.94;;;7.66;100.00
60355;BME280;46198;51.464;-0.066;2024-02-26T11:28:27;100899.66;;;7.51;100.00
60355;BME280;46198;51.464;-0.066;2024-02-26T11:30:57;100910.69;;;7.56;100.00
60355;BME280;46198;51.464;-0.066;2024-02-26T11:33:28;100913.25;;;7.64;100.00
60355;BME280;46198;51.464;-0.066;2024-02-26T11:35:56;100921.75;;;7.61;100.00
60355;BME280;46198;51.464;-0.066;2024-02-26T11:38:26;100919.06;;;7.68;100.00
60355;BME280;46198;51.464;-0.066;2024-02-26T11:40:55;100919.47;;;7.65;100.00
60355;BME280;46198;51.464;-0.066;2024-02-26T11:43:53;100933.53;;;7.53;100.00
60355;BME280;46198;51.464;-0.066;2024-02-26T11:46:25;100934.69;;;7.66;100.00
60355;BME280;46198;51.464;-0.066;2024-02-26T11:48:56;100944.94;;;7.77;100.00
60355;BME280;46198;51.464;-0.066;2024-02-26T11:51:25;100943.63;;;7.73;100.00
60355;BME280;46198;51.464;-0.066;2024-02-26T11:53:55;100947.47;;;7.85;100.00
60355;BME280;46198;51.464;-0.066;2024-02-26T11:56:26;100954.59;;;7.93;100.00
60355;BME280;46198;51.464;-0.066;2024-02-26T11:59:03;100955.19;;;7.95;100.00
60355;BME280;46198;51.464;-0.066;2024-02-26T12:01:42;100940.09;;;8.07;100.00
60355;BME280;46198;51.464;-0.066;2024-02-26T12:04:16;100950.50;;;8.10;100.00
60355;BME280;46198;51.464;-0.066;2024-02-26T12:06:47;100960.28;;;8.11;100.00
60355;BME280;46198;51.464;-0.066;2024-02-26T12:09:35;100941.59;;;8.16;100.00
60355;BME280;46198;51.464;-0.066;2024-02-26T12:12:05;100945.53;;;8.14;100.00
60355;BME280;46198;51.464;-0.066;2024-02-26T12:14:37;100959.22;;;8.06;100.00
60355;BME280;46198;51.464;-0.066;2024-02-26T12:17:07;100960.34;;;8.18;100.00
60355;BME280;46198;51.464;-0.066;2024-02-26T12:19:36;100964.22;;;8.09;100.00
60355;BME280;46198;51.464;-0.066;2024-02-26T12:22:12;100960.91;;;8.07;100.00
60355;BME280;46198;51.464;-0.066;2024-02-26T12:24:40;100975.44;;;8.06;100.00
60355;BME280;46198;51.464;-0.066;2024-02-26T12:27:09;100993.13;;;8.08;100.00
60355;BME280;46198;51.464;-0.066;2024-02-26T12:29:39;100986.75;;;8.16;100.00
60355;BME280;46198;51.464;-0.066;2024-02-26T12:32:07;101007.50;;;8.09;100.00
60355;BME280;46198;51.464;-0.066;2024-02-26T12:34:38;101003.59;;;7.83;100.00
60355;BME280;46198;51.464;-0.066;2024-02-26T12:37:06;101002.19;;;7.87;100.00
60355;BME280;46198;51.464;-0.066;2024-02-26T12:39:36;101006.16;;;7.91;100.00
60355;BME280;46198;51.464;-0.066;2024-02-26T12:42:05;101019.91;;;7.96;100.00
60355;BME280;46198;51.464;-0.066;2024-02-26T12:44:34;101005.75;;;7.94;100.00
60355;BME280;46198;51.464;-0.066;2024-02-26T12:47:04;101010.81;;;8.04;100.00
60355;BME280;46198;51.464;-0.066;2024-02-26T12:49:33;101023.34;;;8.12;100.00
60355;BME280;46198;51.464;-0.066;2024-02-26T12:52:02;101027.47;;;8.08;100.00
60355;BME280;46198;51.464;-0.066;2024-02-26T12:54:31;101024.00;;;7.86;100.00
60355;BME280;46198;51.464;-0.066;2024-02-26T12:57:01;101026.88;;;7.84;100.00
60355;BME280;46198;51.464;-0.066;2024-02-26T12:59:31;101034.47;;;7.95;100.00
60355;BME280;46198;51.464;-0.066;2024-02-26T13:02:00;101034.81;;;7.86;100.00
60355;BME280;46198;51.464;-0.066;2024-02-26T13:04:35;101034.47;;;7.95;100.00
60355;BME280;46198;51.464;-0.066;2024-02-26T13:07:04;101041.38;;;8.05;100.00
60355;BME280;46198;51.464;-0.066;2024-02-26T13:09:34;101043.50;;;8.09;100.00